Aviation Forecast PDF Print E-mail

 met_logo

NATIONAL METEOROLOGICAL SERVICE OF BELIZE

Area Forecast for the Country of Belize


For the period from:

1200  21  DECEMBER  2014

to

2400  21  DECEMBER  2014

All Heights in the forecast are above sea level. PS= Positive, MS= Minus. All times are UTC.


A.

SPECIAL FEATURES of the METEOROLOGICAL SITUATION

 GENERALLY GOOD WEATHER WILL PREVAIL OVER THE FORECAST AREA.

B.

HEIGHT (Ft)

WIND (True Degrees and Knots)

TEMPERATURE (°C)

Surface

30005 BECMG 07008

PS29-31

2,000

09010

PS20

5,000

12005

PS16

10,000

12015

PS08


C.

CLOUDS (Amount, Type, Ceiling and Top(optional))

 SCT/BKN CU BASES 1,400-2,400FT.; TOPS 6,000-8,000FT.

 SCT/BKN SC BASES LYRD BETWEEN 3,500-5,000FT.

 

 

 

D.

SURFACE VISIBILITY:  REDUCED TO 5-8KM IN SHOWERS AND 400M IN HILL FOG.;OTHERWISE GREATER THAN 10KM.


E.

WEATHER:  SUNNY WITH CLOUDY SPELLS. ISOLATED SHOWERS. HILL FOG INLAND.


Remarks, Warnings, Turbulence

Barometric Changes

LOW CLOUDS COVERING HILLS

FALLING

G.

OUTLOOK:

TO 1200 22 DEC-

P/CLOUDY/ ISOL. SHRA.

H.

TAF  MZBZ

210900Z 2112/2212 12008KT 9999 SCT021 SCT040=

I.

Meteorological Office:

BELIZE 

Issued at:

1130 21 DECEMBER 2014

Forecaster:

F.Tench Jr.